createdAt,value
2022-07-29T00:00:10.878Z,101313.56
2022-07-29T00:02:44.140Z,101316.10
2022-07-29T00:04:57.310Z,101317.98
2022-07-29T00:07:10.461Z,101318.79
2022-07-29T00:09:24.985Z,101314.61
2022-07-29T00:11:38.026Z,101312.10
2022-07-29T00:13:51.217Z,101308.14
2022-07-29T00:16:05.048Z,101311.48
2022-07-29T00:18:18.359Z,101311.39
2022-07-29T00:20:31.701Z,101313.38
2022-07-29T00:22:46.430Z,101315.98
2022-07-29T00:24:59.423Z,101319.92
2022-07-29T00:27:12.510Z,101328.40
2022-07-29T00:29:34.404Z,101335.02
2022-07-29T00:31:45.290Z,101336.95
2022-07-29T00:33:59.070Z,101342.60
2022-07-29T00:36:12.560Z,101344.91
2022-07-29T00:38:26.482Z,101337.60
2022-07-29T00:40:39.357Z,101337.20
2022-07-29T00:42:57.242Z,101345.58
2022-07-29T00:45:11.087Z,101348.96
2022-07-29T00:47:24.001Z,101350.16
2022-07-29T00:49:36.885Z,101343.30
2022-07-29T00:51:50.067Z,101345.48
2022-07-29T00:54:03.223Z,101344.10
2022-07-29T00:56:16.342Z,101336.95
2022-07-29T00:58:30.772Z,101332.52
2022-07-29T01:00:45.484Z,101328.64
2022-07-29T01:02:58.817Z,101325.41
2022-07-29T01:05:14.806Z,101321.69
2022-07-29T01:07:28.091Z,101325.62
2022-07-29T01:09:46.295Z,101325.48
2022-07-29T01:12:01.513Z,101328.80
2022-07-29T01:14:15.869Z,101325.33
2022-07-29T01:16:40.710Z,101331.97
2022-07-29T01:18:58.578Z,101334.04
2022-07-29T01:21:32.451Z,101335.23
2022-07-29T01:24:04.053Z,101324.77
2022-07-29T01:26:37.445Z,101315.90
2022-07-29T01:29:10.714Z,101311.70
2022-07-29T01:31:31.842Z,101309.42
2022-07-29T01:33:52.951Z,101306.30
2022-07-29T01:36:10.366Z,101310.47
2022-07-29T01:38:27.147Z,101318.15
2022-07-29T01:40:47.459Z,101319.33
2022-07-29T01:43:04.444Z,101318.51
2022-07-29T01:45:21.455Z,101312.37
2022-07-29T01:47:41.731Z,101307.95
2022-07-29T01:49:58.973Z,101308.29
2022-07-29T01:52:19.361Z,101307.13
2022-07-29T01:54:39.993Z,101302.90
2022-07-29T01:56:55.595Z,101301.39
2022-07-29T01:59:11.070Z,101297.00
2022-07-29T02:01:26.009Z,101297.39
2022-07-29T02:03:40.951Z,101298.56
2022-07-29T02:05:56.884Z,101298.11
2022-07-29T02:08:12.227Z,101291.28
2022-07-29T02:10:29.939Z,101292.45
2022-07-29T02:12:50.707Z,101289.69
2022-07-29T02:15:08.038Z,101285.91
2022-07-29T02:17:30.747Z,101291.30
2022-07-29T02:19:46.655Z,101289.45
2022-07-29T02:22:03.185Z,101291.55
2022-07-29T02:24:18.937Z,101292.88
2022-07-29T02:26:33.695Z,101290.70
2022-07-29T02:28:47.507Z,101290.95
2022-07-29T02:31:05.523Z,101288.84
2022-07-29T02:33:21.889Z,101281.23
2022-07-29T02:35:35.476Z,101281.14
2022-07-29T02:38:10.140Z,101280.41
2022-07-29T02:40:23.915Z,101280.48
2022-07-29T02:42:40.773Z,101284.21
2022-07-29T02:44:54.392Z,101285.61
2022-07-29T02:47:15.023Z,101287.66
2022-07-29T02:49:39.716Z,101287.61
2022-07-29T02:51:54.194Z,101288.27
2022-07-29T02:54:11.193Z,101283.77
2022-07-29T02:56:28.601Z,101284.33
2022-07-29T02:58:47.234Z,101280.86
2022-07-29T03:01:01.295Z,101276.34
2022-07-29T03:03:17.522Z,101276.05
2022-07-29T03:05:31.051Z,101278.77
2022-07-29T03:07:44.931Z,101279.87
2022-07-29T03:09:59.400Z,101278.52
2022-07-29T03:12:14.893Z,101275.16
2022-07-29T03:14:28.685Z,101277.02
2022-07-29T03:16:42.021Z,101280.69
2022-07-29T03:18:55.915Z,101287.64
2022-07-29T03:21:09.787Z,101287.96
2022-07-29T03:23:28.186Z,101286.05
2022-07-29T03:25:48.538Z,101285.60
2022-07-29T03:28:02.239Z,101288.27
2022-07-29T03:30:18.354Z,101292.80
2022-07-29T03:32:35.007Z,101291.69
2022-07-29T03:34:48.709Z,101290.29
2022-07-29T03:37:01.714Z,101290.79
2022-07-29T03:39:17.141Z,101284.55
2022-07-29T03:41:31.603Z,101286.79
2022-07-29T03:43:49.531Z,101288.81
2022-07-29T03:46:04.593Z,101287.63
2022-07-29T03:48:20.736Z,101289.41
2022-07-29T03:50:35.196Z,101286.04
2022-07-29T03:52:48.763Z,101282.32
2022-07-29T03:55:02.217Z,101289.98
2022-07-29T03:57:18.080Z,101287.63
2022-07-29T03:59:31.466Z,101289.52
2022-07-29T04:01:46.435Z,101291.37
2022-07-29T04:04:00.240Z,101290.75
2022-07-29T04:06:13.956Z,101290.05
2022-07-29T04:08:27.033Z,101288.48
2022-07-29T04:10:39.940Z,101289.11
2022-07-29T04:12:53.053Z,101293.65
2022-07-29T04:15:06.358Z,101287.09
2022-07-29T04:17:19.325Z,101280.96
2022-07-29T04:19:32.453Z,101278.73
2022-07-29T04:21:47.347Z,101276.12
2022-07-29T04:24:00.337Z,101275.02
2022-07-29T04:26:13.854Z,101275.70
2022-07-29T04:28:26.964Z,101273.85
2022-07-29T04:30:41.839Z,101271.00
2022-07-29T04:32:55.265Z,101274.19
2022-07-29T04:35:08.726Z,101281.86
2022-07-29T04:37:21.812Z,101285.29
2022-07-29T04:39:34.830Z,101286.39
2022-07-29T04:41:47.790Z,101284.27
2022-07-29T04:44:02.881Z,101283.74
2022-07-29T04:46:16.481Z,101281.79
2022-07-29T04:48:29.531Z,101283.35
2022-07-29T04:50:46.436Z,101282.02
2022-07-29T04:52:59.440Z,101282.61
2022-07-29T04:55:13.711Z,101280.95
2022-07-29T04:57:26.805Z,101273.54
2022-07-29T04:59:39.769Z,101265.91
2022-07-29T05:01:52.957Z,101268.42
2022-07-29T05:04:06.139Z,101270.30
2022-07-29T05:06:19.424Z,101272.58
2022-07-29T05:08:32.498Z,101277.88
2022-07-29T05:10:45.602Z,101275.52
2022-07-29T05:12:58.655Z,101272.15
2022-07-29T05:15:13.252Z,101270.83
2022-07-29T05:17:26.409Z,101268.41
2022-07-29T05:19:40.006Z,101274.41
2022-07-29T05:21:53.930Z,101278.36
2022-07-29T05:24:07.045Z,101277.14
2022-07-29T05:26:20.237Z,101278.04
2022-07-29T05:28:33.366Z,101277.50
2022-07-29T05:30:46.652Z,101275.20
2022-07-29T05:32:59.712Z,101273.16
2022-07-29T05:35:14.727Z,101277.93
2022-07-29T05:37:28.124Z,101279.15
2022-07-29T05:39:48.591Z,101272.64
2022-07-29T05:42:02.515Z,101271.56
2022-07-29T05:44:15.856Z,101277.99
2022-07-29T05:46:29.152Z,101282.05
2022-07-29T05:48:42.421Z,101280.33
2022-07-29T05:50:56.626Z,101278.54
2022-07-29T05:53:19.365Z,101270.60
2022-07-29T05:55:33.427Z,101270.61
2022-07-29T05:57:47.779Z,101275.06
2022-07-29T06:00:00.793Z,101281.48
2022-07-29T06:02:13.838Z,101283.10
2022-07-29T06:04:26.950Z,101280.53
2022-07-29T06:06:40.247Z,101287.33
2022-07-29T06:08:53.217Z,101293.65
2022-07-29T06:11:06.492Z,101300.09
2022-07-29T06:13:19.984Z,101298.83
2022-07-29T06:15:33.145Z,101294.96
2022-07-29T06:17:59.685Z,101288.25
2022-07-29T06:20:16.493Z,101288.52
2022-07-29T06:22:29.652Z,101287.91
2022-07-29T06:24:46.043Z,101284.30
2022-07-29T06:26:59.274Z,101291.57
2022-07-29T06:29:12.910Z,101291.45
2022-07-29T06:31:25.909Z,101291.40
2022-07-29T06:33:38.922Z,101292.05
2022-07-29T06:35:54.975Z,101285.98
2022-07-29T06:38:31.516Z,101285.48
2022-07-29T06:41:01.153Z,101290.14
2022-07-29T06:43:14.177Z,101285.96
2022-07-29T06:45:27.574Z,101284.45
2022-07-29T06:47:41.609Z,101286.33
2022-07-29T06:49:55.158Z,101287.55
2022-07-29T06:52:08.390Z,101283.84
2022-07-29T06:54:21.393Z,101283.74
2022-07-29T06:56:39.434Z,101289.30
2022-07-29T06:58:53.154Z,101286.70
2022-07-29T07:01:09.049Z,101282.00
2022-07-29T07:03:22.756Z,101282.85
2022-07-29T07:05:36.003Z,101283.58
2022-07-29T07:07:49.044Z,101288.98
2022-07-29T07:10:02.440Z,101286.81
2022-07-29T07:12:15.731Z,101290.14
2022-07-29T07:14:30.190Z,101289.13
2022-07-29T07:16:43.338Z,101285.64
2022-07-29T07:18:56.325Z,101282.30
2022-07-29T07:21:09.331Z,101287.48
2022-07-29T07:23:22.357Z,101290.77
2022-07-29T07:25:35.830Z,101292.28
2022-07-29T07:27:49.095Z,101291.12
2022-07-29T07:30:02.319Z,101285.56
2022-07-29T07:32:15.344Z,101289.81
2022-07-29T07:34:29.731Z,101292.27
2022-07-29T07:36:42.807Z,101289.04
2022-07-29T07:38:55.774Z,101296.90
2022-07-29T07:41:08.740Z,101302.39
2022-07-29T07:43:21.768Z,101303.15
2022-07-29T07:45:36.479Z,101297.14
2022-07-29T07:47:49.699Z,101301.02
2022-07-29T07:50:02.639Z,101308.77
2022-07-29T07:52:15.605Z,101314.70
2022-07-29T07:54:28.455Z,101317.48
2022-07-29T07:56:41.415Z,101318.91
2022-07-29T07:58:54.502Z,101319.15
2022-07-29T08:01:07.753Z,101318.98
2022-07-29T08:03:21.130Z,101317.38
2022-07-29T08:05:34.520Z,101317.33
2022-07-29T08:07:48.085Z,101313.45
2022-07-29T08:10:01.050Z,101309.91
2022-07-29T08:12:14.533Z,101307.83
2022-07-29T08:14:27.579Z,101311.91
2022-07-29T08:16:40.868Z,101310.17
2022-07-29T08:18:54.035Z,101310.21
2022-07-29T08:21:07.169Z,101317.00
2022-07-29T08:23:21.171Z,101320.00
2022-07-29T08:25:34.720Z,101313.91
2022-07-29T08:27:51.873Z,101311.24
2022-07-29T08:30:04.793Z,101315.92
2022-07-29T08:32:36.896Z,101317.00
2022-07-29T08:34:48.441Z,101315.92
2022-07-29T08:37:01.322Z,101318.80
2022-07-29T08:39:14.333Z,101318.58
2022-07-29T08:41:27.797Z,101316.59
2022-07-29T08:43:40.768Z,101318.44
2022-07-29T08:45:55.130Z,101321.45
2022-07-29T08:48:08.568Z,101326.48
2022-07-29T08:50:23.153Z,101318.44
2022-07-29T08:52:39.990Z,101314.31
2022-07-29T08:54:53.717Z,101323.23
2022-07-29T08:57:07.282Z,101326.50
2022-07-29T08:59:23.979Z,101322.85
2022-07-29T09:01:42.795Z,101318.70
2022-07-29T09:04:03.421Z,101322.91
2022-07-29T09:06:21.527Z,101323.94
2022-07-29T09:08:35.045Z,101318.09
2022-07-29T09:10:48.759Z,101323.27
2022-07-29T09:13:01.836Z,101327.38
2022-07-29T09:15:15.692Z,101331.70
2022-07-29T09:17:46.870Z,101330.67
2022-07-29T09:20:16.590Z,101332.45
2022-07-29T09:22:41.711Z,101327.92
2022-07-29T09:24:56.783Z,101325.95
2022-07-29T09:27:12.134Z,101331.11
2022-07-29T09:29:26.673Z,101333.79
2022-07-29T09:31:43.562Z,101323.16
2022-07-29T09:33:59.315Z,101326.46
2022-07-29T09:36:13.967Z,101339.10
2022-07-29T09:38:26.923Z,101336.70
2022-07-29T09:40:39.886Z,101332.02
2022-07-29T09:42:53.503Z,101335.31
2022-07-29T09:45:06.649Z,101345.45
2022-07-29T09:47:20.222Z,101346.23
2022-07-29T09:49:33.296Z,101344.91
2022-07-29T09:51:46.523Z,101347.31
2022-07-29T09:53:59.513Z,101352.21
2022-07-29T09:56:12.825Z,101353.52
2022-07-29T09:58:26.648Z,101351.59
2022-07-29T10:00:49.571Z,101356.55
2022-07-29T10:03:07.443Z,101361.27
2022-07-29T10:05:36.816Z,101349.90
2022-07-29T10:07:57.710Z,101349.52
2022-07-29T10:10:11.696Z,101356.30
2022-07-29T10:12:24.670Z,101351.77
2022-07-29T10:14:38.458Z,101355.78
2022-07-29T10:16:51.674Z,101354.25
2022-07-29T10:19:05.195Z,101359.58
2022-07-29T10:21:35.074Z,101359.54
2022-07-29T10:23:49.891Z,101360.79
2022-07-29T10:26:03.435Z,101355.02
2022-07-29T10:28:16.938Z,101360.56
2022-07-29T10:30:31.778Z,101362.73
2022-07-29T10:32:58.619Z,101353.06
2022-07-29T10:35:23.794Z,101350.09
2022-07-29T10:37:48.305Z,101355.70
2022-07-29T10:40:30.323Z,101355.52
2022-07-29T10:42:47.310Z,101348.81
2022-07-29T10:45:01.731Z,101353.23
2022-07-29T10:47:23.762Z,101356.15
2022-07-29T10:49:36.932Z,101356.66
2022-07-29T10:52:06.037Z,101353.22
2022-07-29T10:54:19.537Z,101353.95
2022-07-29T10:56:35.496Z,101358.64
2022-07-29T10:58:52.679Z,101353.10
2022-07-29T11:01:37.201Z,101352.77
2022-07-29T11:03:57.405Z,101354.63
2022-07-29T11:06:10.949Z,101357.23
2022-07-29T11:08:29.720Z,101360.05
2022-07-29T11:10:42.793Z,101359.95
2022-07-29T11:12:57.957Z,101360.68
2022-07-29T11:15:19.162Z,101364.13
2022-07-29T11:17:47.072Z,101361.73
2022-07-29T11:20:45.495Z,101366.56
2022-07-29T11:22:55.823Z,101365.38
2022-07-29T11:25:42.958Z,101366.58
2022-07-29T11:27:56.178Z,101365.48
2022-07-29T11:30:14.621Z,101362.41
2022-07-29T11:32:29.670Z,101363.42
2022-07-29T11:34:43.625Z,101369.23
2022-07-29T11:37:29.157Z,101368.08
2022-07-29T11:39:44.156Z,101373.64
2022-07-29T11:42:28.323Z,101372.20
2022-07-29T11:45:08.836Z,101373.45
2022-07-29T11:47:40.480Z,101373.34
2022-07-29T11:49:54.977Z,101373.48
2022-07-29T11:52:14.882Z,101373.15
2022-07-29T11:54:57.223Z,101367.75
2022-07-29T11:57:11.097Z,101363.94
2022-07-29T11:59:32.962Z,101365.44
2022-07-29T12:02:18.528Z,101367.20
2022-07-29T12:04:34.161Z,101361.45
2022-07-29T12:06:47.118Z,101354.77
2022-07-29T12:09:02.373Z,101356.88
2022-07-29T12:11:24.799Z,101359.18
2022-07-29T12:13:45.316Z,101359.55
2022-07-29T12:16:02.664Z,101352.58
2022-07-29T12:18:24.290Z,101356.95
2022-07-29T12:20:37.829Z,101359.85
2022-07-29T12:22:51.514Z,101350.23
2022-07-29T12:25:32.458Z,101346.06
2022-07-29T12:27:43.033Z,101348.45
2022-07-29T12:30:05.523Z,101351.73
2022-07-29T12:32:19.521Z,101350.79
2022-07-29T12:34:34.501Z,101350.17
2022-07-29T12:36:47.797Z,101345.58
2022-07-29T12:39:01.173Z,101346.42
2022-07-29T12:41:14.646Z,101350.05
2022-07-29T12:43:28.622Z,101345.45
2022-07-29T12:45:41.879Z,101346.45
2022-07-29T12:48:01.368Z,101342.71
2022-07-29T12:50:23.361Z,101345.95
2022-07-29T12:52:40.142Z,101342.71
2022-07-29T12:54:55.965Z,101337.27
2022-07-29T12:57:09.098Z,101337.77
2022-07-29T12:59:33.092Z,101338.08
2022-07-29T13:01:47.096Z,101333.58
2022-07-29T13:04:02.663Z,101338.08
2022-07-29T13:06:35.745Z,101342.44
2022-07-29T13:09:09.192Z,101347.73
2022-07-29T13:14:06.584Z,101346.67
2022-07-29T13:16:21.158Z,101348.19
2022-07-29T13:18:39.398Z,101343.91
2022-07-29T13:20:52.364Z,101342.61
2022-07-29T13:23:05.929Z,101345.41
2022-07-29T13:25:18.874Z,101339.91
2022-07-29T13:27:34.235Z,101341.35
2022-07-29T13:29:47.207Z,101343.95
2022-07-29T13:32:00.603Z,101343.08
2022-07-29T13:34:13.963Z,101338.82
2022-07-29T13:36:27.028Z,101343.30
2022-07-29T13:38:39.868Z,101343.74
2022-07-29T13:40:52.810Z,101336.02
2022-07-29T13:43:05.830Z,101333.75
2022-07-29T13:45:18.888Z,101338.19
2022-07-29T13:47:33.277Z,101335.99
2022-07-29T13:49:46.687Z,101335.55
2022-07-29T13:52:00.197Z,101335.39
2022-07-29T13:54:13.685Z,101341.39
2022-07-29T13:56:26.642Z,101343.30
2022-07-29T13:58:40.050Z,101342.90
2022-07-29T14:00:53.049Z,101343.93
2022-07-29T14:03:06.148Z,101346.45
2022-07-29T14:05:19.197Z,101346.29
2022-07-29T14:07:32.172Z,101349.05
2022-07-29T14:09:45.342Z,101352.34
2022-07-29T14:11:58.577Z,101356.48
2022-07-29T14:14:12.777Z,101358.23
2022-07-29T14:16:25.801Z,101357.70
2022-07-29T14:18:38.908Z,101358.29
2022-07-29T14:20:52.812Z,101362.90
2022-07-29T14:23:05.779Z,101362.29
2022-07-29T14:25:19.118Z,101364.73
2022-07-29T14:27:37.763Z,101369.38
2022-07-29T14:29:51.446Z,101368.17
2022-07-29T14:32:04.646Z,101365.24
2022-07-29T14:34:17.970Z,101365.97
2022-07-29T14:36:31.460Z,101369.55
2022-07-29T14:38:44.641Z,101368.25
2022-07-29T14:40:57.808Z,101367.19
2022-07-29T14:43:10.802Z,101367.32
2022-07-29T14:45:23.782Z,101364.86
2022-07-29T14:47:36.807Z,101365.23
2022-07-29T14:49:49.796Z,101366.30
2022-07-29T14:52:02.658Z,101368.59
2022-07-29T14:54:15.711Z,101369.58
2022-07-29T14:56:37.529Z,101372.22
2022-07-29T14:58:51.859Z,101370.70
2022-07-29T15:01:05.325Z,101368.18
2022-07-29T15:03:23.911Z,101367.73
2022-07-29T15:05:37.257Z,101372.10
2022-07-29T15:07:50.253Z,101374.14
2022-07-29T15:10:03.256Z,101373.63
2022-07-29T15:12:16.534Z,101374.41
2022-07-29T15:14:29.513Z,101379.67
2022-07-29T15:16:46.722Z,101381.92
2022-07-29T15:19:01.601Z,101380.67
2022-07-29T15:21:14.814Z,101376.60
2022-07-29T15:23:27.869Z,101385.53
2022-07-29T15:25:40.937Z,101390.15
2022-07-29T15:27:56.622Z,101393.44
2022-07-29T15:30:31.432Z,101399.43
2022-07-29T15:32:46.779Z,101395.79
2022-07-29T15:34:59.742Z,101398.73
2022-07-29T15:37:13.636Z,101406.28
2022-07-29T15:39:26.809Z,101404.43
2022-07-29T15:41:39.967Z,101408.05
2022-07-29T15:43:53.237Z,101402.14
2022-07-29T15:46:22.629Z,101405.70
2022-07-29T15:48:35.863Z,101408.57
2022-07-29T15:50:49.781Z,101409.93
2022-07-29T15:53:02.921Z,101407.23
2022-07-29T15:55:16.875Z,101405.92
2022-07-29T15:57:30.095Z,101404.84
2022-07-29T15:59:43.378Z,101402.68
2022-07-29T16:01:56.529Z,101399.13
2022-07-29T16:04:09.974Z,101400.57
2022-07-29T16:06:23.083Z,101399.64
2022-07-29T16:08:36.210Z,101403.48
2022-07-29T16:10:49.759Z,101402.23
2022-07-29T16:13:02.945Z,101405.37
2022-07-29T16:15:16.547Z,101403.66
2022-07-29T16:17:29.892Z,101403.26
2022-07-29T16:19:43.045Z,101407.63
2022-07-29T16:21:59.708Z,101407.20
2022-07-29T16:24:14.076Z,101403.96
2022-07-29T16:26:27.346Z,101407.64
2022-07-29T16:28:40.759Z,101409.02
2022-07-29T16:30:54.208Z,101409.70
2022-07-29T16:33:08.446Z,101412.39
2022-07-29T16:35:21.570Z,101409.11
2022-07-29T16:37:36.691Z,101411.55
2022-07-29T16:39:49.788Z,101410.41
2022-07-29T16:42:05.246Z,101411.61
2022-07-29T16:44:18.614Z,101412.75
2022-07-29T16:46:31.652Z,101413.14
2022-07-29T16:48:45.036Z,101413.33
2022-07-29T16:50:58.671Z,101414.42
2022-07-29T16:53:11.699Z,101418.05
2022-07-29T16:55:24.845Z,101418.79
2022-07-29T16:57:37.903Z,101420.77
2022-07-29T16:59:52.176Z,101417.23
2022-07-29T17:02:05.586Z,101414.77
2022-07-29T17:04:18.783Z,101415.15
2022-07-29T17:06:32.027Z,101410.57
2022-07-29T17:08:45.410Z,101411.02
2022-07-29T17:10:59.245Z,101410.76
2022-07-29T17:13:12.477Z,101407.75
2022-07-29T17:15:25.529Z,101408.53
2022-07-29T17:17:54.849Z,101406.96
2022-07-29T17:20:09.347Z,101398.59
2022-07-29T17:22:22.456Z,101402.90
2022-07-29T17:24:35.599Z,101402.73
2022-07-29T17:26:48.885Z,101400.53
2022-07-29T17:29:02.076Z,101390.96
2022-07-29T17:31:15.768Z,101392.60
2022-07-29T17:33:29.782Z,101392.30
2022-07-29T17:35:59.222Z,101389.85
2022-07-29T17:38:12.730Z,101385.76
2022-07-29T17:40:25.987Z,101380.73
2022-07-29T17:42:39.270Z,101379.60
2022-07-29T17:44:52.413Z,101373.17
2022-07-29T17:47:06.020Z,101378.38
2022-07-29T17:49:20.954Z,101378.59
2022-07-29T17:51:34.342Z,101378.29
2022-07-29T17:53:47.956Z,101377.98
2022-07-29T17:56:01.290Z,101377.98
2022-07-29T17:58:14.451Z,101373.85
2022-07-29T18:00:27.897Z,101364.55
2022-07-29T18:02:41.141Z,101359.16
2022-07-29T18:04:54.206Z,101360.45
2022-07-29T18:07:07.314Z,101355.61
2022-07-29T18:09:23.709Z,101356.02
2022-07-29T18:11:37.681Z,101354.17
2022-07-29T18:13:52.136Z,101350.03
2022-07-29T18:16:05.659Z,101346.59
2022-07-29T18:18:19.526Z,101338.71
2022-07-29T18:20:32.921Z,101338.75
2022-07-29T18:22:45.947Z,101336.42
2022-07-29T18:24:58.929Z,101335.57
2022-07-29T18:27:12.288Z,101331.11
2022-07-29T18:29:25.358Z,101331.68
2022-07-29T18:31:38.541Z,101330.26
2022-07-29T18:33:51.638Z,101332.13
2022-07-29T18:36:10.782Z,101331.86
2022-07-29T18:38:25.097Z,101328.84
2022-07-29T18:40:41.191Z,101324.69
2022-07-29T18:42:54.205Z,101325.34
2022-07-29T18:45:11.908Z,101325.42
2022-07-29T18:47:32.504Z,101323.84
2022-07-29T18:49:45.523Z,101314.05
2022-07-29T18:51:59.385Z,101312.56
2022-07-29T18:54:12.528Z,101309.48
2022-07-29T18:56:25.524Z,101310.15
2022-07-29T18:58:39.488Z,101308.30
2022-07-29T19:00:52.581Z,101302.77
2022-07-29T19:03:06.393Z,101297.21
2022-07-29T19:05:19.557Z,101295.33
2022-07-29T19:07:32.520Z,101299.29
2022-07-29T19:09:49.399Z,101297.77
2022-07-29T19:12:03.813Z,101296.81
2022-07-29T19:14:16.948Z,101292.86
2022-07-29T19:16:30.057Z,101291.13
2022-07-29T19:18:44.327Z,101285.70
2022-07-29T19:20:57.340Z,101282.41
2022-07-29T19:23:10.401Z,101277.39
2022-07-29T19:25:24.262Z,101277.08
2022-07-29T19:27:37.306Z,101279.21
2022-07-29T19:29:50.531Z,101284.93
2022-07-29T19:32:03.529Z,101281.04
2022-07-29T19:34:16.580Z,101289.22
2022-07-29T19:36:29.677Z,101290.98
2022-07-29T19:38:42.772Z,101288.49
2022-07-29T19:40:55.735Z,101287.96
2022-07-29T19:43:50.479Z,101289.98
2022-07-29T19:45:42.729Z,101288.17
2022-07-29T19:48:01.067Z,101290.86
2022-07-29T19:50:16.491Z,101288.91
2022-07-29T19:52:29.608Z,101289.94
2022-07-29T19:54:42.545Z,101291.48
2022-07-29T19:56:55.825Z,101288.85
2022-07-29T19:59:08.907Z,101289.79
2022-07-29T20:01:21.986Z,101293.02
2022-07-29T20:03:35.116Z,101291.92
2022-07-29T20:05:48.751Z,101291.89
2022-07-29T20:08:01.732Z,101290.88
2022-07-29T20:10:17.041Z,101290.20
2022-07-29T20:12:30.233Z,101288.11
2022-07-29T20:14:43.740Z,101285.81
2022-07-29T20:16:56.869Z,101287.85
2022-07-29T20:19:17.993Z,101284.23
2022-07-29T20:21:35.137Z,101283.48
2022-07-29T20:23:48.069Z,101277.05
2022-07-29T20:26:01.132Z,101276.13
2022-07-29T20:28:14.082Z,101267.03
2022-07-29T20:30:27.480Z,101265.60
2022-07-29T20:32:40.695Z,101263.93
2022-07-29T20:34:53.721Z,101272.83
2022-07-29T20:37:06.872Z,101279.08
2022-07-29T20:39:19.819Z,101274.50
2022-07-29T20:41:33.056Z,101270.45
2022-07-29T20:43:46.708Z,101266.58
2022-07-29T20:45:59.757Z,101265.08
2022-07-29T20:48:14.653Z,101268.98
2022-07-29T20:50:28.348Z,101270.47
2022-07-29T20:52:42.235Z,101266.98
2022-07-29T20:54:55.270Z,101265.06
2022-07-29T20:57:08.311Z,101263.33
2022-07-29T20:59:21.260Z,101262.98
2022-07-29T21:01:34.326Z,101262.33
2022-07-29T21:03:47.532Z,101264.81
2022-07-29T21:06:00.575Z,101258.98
2022-07-29T21:08:14.226Z,101257.22
2022-07-29T21:10:27.421Z,101253.33
2022-07-29T21:12:40.481Z,101252.75
2022-07-29T21:14:53.562Z,101248.92
2022-07-29T21:17:08.429Z,101250.38
2022-07-29T21:19:39.897Z,101237.75
2022-07-29T21:21:52.890Z,101241.01
2022-07-29T21:24:05.943Z,101235.91
2022-07-29T21:26:19.013Z,101235.31
2022-07-29T21:28:39.631Z,101237.08
2022-07-29T21:30:52.680Z,101233.27
2022-07-29T21:33:06.177Z,101228.65
2022-07-29T21:35:35.749Z,101227.45
2022-07-29T21:37:52.708Z,101224.66
2022-07-29T21:40:05.706Z,101226.66
2022-07-29T21:42:18.932Z,101224.59
2022-07-29T21:44:31.913Z,101224.23
2022-07-29T21:46:44.932Z,101221.80
2022-07-29T21:48:58.033Z,101226.61
2022-07-29T21:51:11.187Z,101223.58
2022-07-29T21:53:26.794Z,101226.28
2022-07-29T21:55:40.279Z,101225.86
2022-07-29T21:57:53.239Z,101231.03
2022-07-29T22:00:06.773Z,101230.55
2022-07-29T22:02:25.271Z,101233.05
2022-07-29T22:04:38.434Z,101237.34
2022-07-29T22:06:51.567Z,101238.17
2022-07-29T22:09:04.587Z,101240.98
2022-07-29T22:11:17.662Z,101239.76
2022-07-29T22:13:33.261Z,101231.25
2022-07-29T22:15:50.338Z,101231.77
2022-07-29T22:18:03.894Z,101232.77
2022-07-29T22:20:17.793Z,101227.50
2022-07-29T22:22:31.256Z,101216.90
2022-07-29T22:24:44.317Z,101219.34
2022-07-29T22:26:57.462Z,101227.70
2022-07-29T22:29:10.687Z,101223.36
2022-07-29T22:31:23.907Z,101215.46
2022-07-29T22:33:36.992Z,101218.81
2022-07-29T22:35:50.258Z,101218.83
2022-07-29T22:38:03.302Z,101223.21
2022-07-29T22:40:18.585Z,101219.02
2022-07-29T22:42:31.809Z,101218.95
2022-07-29T22:44:44.935Z,101216.70
2022-07-29T22:46:58.120Z,101213.50
2022-07-29T22:49:11.527Z,101212.90
2022-07-29T22:51:24.721Z,101208.31
2022-07-29T22:53:37.955Z,101199.95
2022-07-29T22:55:51.010Z,101202.14
2022-07-29T22:58:03.983Z,101201.70
2022-07-29T23:00:18.680Z,101197.50
2022-07-29T23:02:31.637Z,101195.03
2022-07-29T23:04:44.658Z,101191.49
2022-07-29T23:06:58.056Z,101199.09
2022-07-29T23:09:13.350Z,101204.08
2022-07-29T23:11:26.334Z,101200.95
2022-07-29T23:13:41.311Z,101202.48
2022-07-29T23:15:54.362Z,101204.29
2022-07-29T23:18:07.403Z,101202.77
2022-07-29T23:20:20.490Z,101204.67
2022-07-29T23:22:33.572Z,101197.64
2022-07-29T23:24:46.577Z,101197.04
2022-07-29T23:26:59.900Z,101198.61
2022-07-29T23:29:13.298Z,101193.85
2022-07-29T23:31:26.991Z,101186.85
2022-07-29T23:33:39.979Z,101187.98
2022-07-29T23:35:52.990Z,101185.27
2022-07-29T23:38:05.996Z,101183.22
2022-07-29T23:40:19.850Z,101178.90
2022-07-29T23:42:33.341Z,101179.55
2022-07-29T23:44:46.334Z,101180.71
2022-07-29T23:46:59.645Z,101185.55
2022-07-29T23:49:12.899Z,101183.40
2022-07-29T23:51:26.055Z,101189.19
2022-07-29T23:53:53.853Z,101188.55
2022-07-29T23:56:07.334Z,101185.42
2022-07-29T23:58:20.330Z,101187.69
